LXGB/GIB METAR and TAF weather

Enter ICAO airport designator
Station Type Date Time Source
LXGB METAR 2019/10/15 20:50 UTC NOAA

LXGB 152050Z AUTO 24008KT 9999 // NCD 19/05 Q1021


Station Type Date Time Source
LXGB Decoded METAR 2019/10/15 20:50 UTC NOAA

Gibraltar, Gibraltar (LXGB) 36-09N 005-21W 0M
Oct 15, 2019 - 04:50 PM EDT / 2019.10.15 2050 UTC
Wind: from the WSW (240 degrees) at 9 MPH (8 KT):0
Visibility: greater than 7 mile(s):0
Temperature: 66 F (19 C)
Dew Point: 41 F (5 C)
Relative Humidity: 39%
Pressure (altimeter): 30.15 in. Hg (1021 hPa)
ob: LXGB 152050Z AUTO 24008KT 9999 // NCD 19/05 Q1021
cycle: 21

Station Type Date Time Source
LXGB TAF 2019/05/20 18:18 UTC NOAA

TAF
AMD TAF
AMD LXGB 202014Z 2018/2222 CNL

Example: see airport list